createdAt,value
2018-09-19T00:00:11.426Z,0.80
2018-09-19T00:01:15.520Z,1.05
2018-09-19T00:02:19.570Z,1.10
2018-09-19T00:03:23.773Z,1.47
2018-09-19T00:04:27.858Z,1.15
2018-09-19T00:05:31.942Z,1.95
2018-09-19T00:06:36.288Z,1.12
2018-09-19T00:07:40.454Z,1.10
2018-09-19T00:08:44.579Z,1.20
2018-09-19T00:09:48.683Z,1.42
2018-09-19T00:10:52.817Z,2.27
2018-09-19T00:11:56.873Z,0.98
2018-09-19T00:13:01.017Z,0.90
2018-09-19T00:14:05.136Z,0.98
2018-09-19T00:15:09.205Z,1.22
2018-09-19T00:16:13.300Z,1.10
2018-09-19T00:17:17.364Z,1.00
2018-09-19T00:18:21.530Z,1.67
2018-09-19T00:19:25.650Z,1.05
2018-09-19T00:20:29.727Z,1.37
2018-09-19T00:21:33.871Z,0.98
2018-09-19T00:22:37.967Z,1.02
2018-09-19T00:23:42.035Z,1.10
2018-09-19T00:24:46.168Z,1.42
2018-09-19T00:25:50.303Z,1.00
2018-09-19T00:26:54.465Z,1.20
2018-09-19T00:27:58.491Z,0.95
2018-09-19T00:29:02.717Z,1.10
2018-09-19T00:30:06.703Z,0.90
2018-09-19T00:31:10.889Z,0.90
2018-09-19T00:32:14.979Z,4.30
2018-09-19T00:33:19.101Z,2.27
2018-09-19T00:34:23.242Z,1.30
2018-09-19T00:35:27.410Z,1.25
2018-09-19T00:36:31.538Z,1.27
2018-09-19T00:37:35.624Z,1.00
2018-09-19T00:38:39.699Z,1.10
2018-09-19T00:39:44.970Z,1.52
2018-09-19T00:40:48.964Z,1.20
2018-09-19T00:41:53.100Z,1.25
2018-09-19T00:42:57.214Z,1.10
2018-09-19T00:44:01.362Z,1.45
2018-09-19T00:45:05.559Z,1.67
2018-09-19T00:46:09.728Z,1.00
2018-09-19T00:47:13.896Z,1.50
2018-09-19T00:48:18.081Z,1.65
2018-09-19T00:49:22.124Z,2.22
2018-09-19T00:50:26.284Z,1.30
2018-09-19T00:51:30.352Z,1.10
2018-09-19T00:52:34.441Z,1.17
2018-09-19T00:53:38.579Z,1.00
2018-09-19T00:54:42.699Z,1.10
2018-09-19T00:55:46.844Z,1.10
2018-09-19T00:56:51.063Z,1.57
2018-09-19T00:57:55.172Z,1.37
2018-09-19T00:58:59.278Z,1.20
2018-09-19T01:00:03.473Z,1.00
2018-09-19T01:01:07.556Z,1.17
2018-09-19T01:02:11.640Z,0.90
2018-09-19T01:03:15.775Z,1.80
2018-09-19T01:04:19.864Z,1.25
2018-09-19T01:05:23.968Z,1.30
2018-09-19T01:06:28.035Z,1.00
2018-09-19T01:07:32.154Z,1.17
2018-09-19T01:08:36.262Z,1.00
2018-09-19T01:09:40.331Z,1.10
2018-09-19T01:10:44.484Z,1.32
2018-09-19T01:11:54.657Z,1.30
2018-09-19T01:13:04.799Z,1.30
2018-09-19T01:14:14.871Z,2.30
2018-09-19T01:15:25.113Z,1.80
2018-09-19T01:16:35.174Z,1.30
2018-09-19T01:17:39.391Z,2.67
2018-09-19T01:18:43.579Z,1.20
2018-09-19T01:19:48.001Z,1.05
2018-09-19T01:20:52.101Z,1.42
2018-09-19T01:21:56.243Z,1.40
2018-09-19T01:23:00.373Z,1.20
2018-09-19T01:24:04.406Z,1.35
2018-09-19T01:25:08.491Z,0.95
2018-09-19T01:26:12.545Z,1.72
2018-09-19T01:27:16.637Z,2.77
2018-09-19T01:28:20.661Z,1.45
2018-09-19T01:29:24.783Z,1.87
2018-09-19T01:30:29.033Z,1.30
2018-09-19T01:31:33.147Z,1.22
2018-09-19T01:32:37.255Z,1.20
2018-09-19T01:33:41.418Z,1.20
2018-09-19T01:34:45.461Z,1.27
2018-09-19T01:35:49.535Z,1.80
2018-09-19T01:36:53.656Z,2.27
2018-09-19T01:37:57.724Z,1.22
2018-09-19T01:39:01.855Z,1.30
2018-09-19T01:40:05.953Z,1.67
2018-09-19T01:41:10.061Z,2.22
2018-09-19T01:42:14.119Z,1.15
2018-09-19T01:43:18.191Z,1.32
2018-09-19T01:44:22.311Z,1.37
2018-09-19T01:45:26.453Z,1.62
2018-09-19T01:46:30.627Z,1.32
2018-09-19T01:47:34.734Z,1.42
2018-09-19T01:48:38.830Z,1.60
2018-09-19T01:49:43.016Z,1.15
2018-09-19T01:50:47.215Z,1.52
2018-09-19T01:51:54.843Z,1.47
2018-09-19T01:52:58.974Z,1.17
2018-09-19T01:54:03.042Z,1.72
2018-09-19T01:55:07.110Z,1.30
2018-09-19T01:56:11.262Z,1.98
2018-09-19T01:57:15.415Z,1.40
2018-09-19T01:58:19.510Z,1.12
2018-09-19T01:59:23.558Z,2.22
2018-09-19T02:00:27.752Z,1.20
2018-09-19T02:01:32.022Z,1.15
2018-09-19T02:02:36.035Z,1.20
2018-09-19T02:03:40.135Z,1.30
2018-09-19T02:04:44.242Z,1.02
2018-09-19T02:05:48.375Z,0.90
2018-09-19T02:06:52.432Z,1.30
2018-09-19T02:07:56.573Z,1.07
2018-09-19T02:09:00.623Z,0.95
2018-09-19T02:10:05.081Z,1.57
2018-09-19T02:11:09.226Z,1.07
2018-09-19T02:12:13.281Z,0.90
2018-09-19T02:13:17.584Z,1.10
2018-09-19T02:14:21.691Z,1.20
2018-09-19T02:15:25.786Z,1.40
2018-09-19T02:16:29.868Z,1.25
2018-09-19T02:17:34.047Z,1.20
2018-09-19T02:18:38.184Z,1.20
2018-09-19T02:19:42.415Z,1.40
2018-09-19T02:20:46.519Z,1.40
2018-09-19T02:21:50.582Z,3.40
2018-09-19T02:22:54.656Z,2.08
2018-09-19T02:23:58.877Z,1.85
2018-09-19T02:25:02.989Z,1.95
2018-09-19T02:26:07.156Z,1.20
2018-09-19T02:27:11.313Z,1.57
2018-09-19T02:28:15.418Z,1.40
2018-09-19T02:29:19.521Z,1.20
2018-09-19T02:30:23.682Z,1.30
2018-09-19T02:31:28.029Z,1.27
2018-09-19T02:32:32.106Z,1.40
2018-09-19T02:33:36.178Z,1.45
2018-09-19T02:34:40.190Z,1.62
2018-09-19T02:35:44.379Z,1.40
2018-09-19T02:36:48.580Z,1.12
2018-09-19T02:37:52.617Z,1.87
2018-09-19T02:38:57.879Z,1.42
2018-09-19T02:40:02.162Z,1.45
2018-09-19T02:41:06.363Z,1.35
2018-09-19T02:42:10.409Z,1.20
2018-09-19T02:43:14.460Z,3.05
2018-09-19T02:44:18.541Z,1.07
2018-09-19T02:45:22.654Z,1.45
2018-09-19T02:46:26.914Z,1.25
2018-09-19T02:47:31.004Z,1.60
2018-09-19T02:48:35.095Z,1.10
2018-09-19T02:49:39.229Z,1.02
2018-09-19T02:50:43.285Z,2.67
2018-09-19T02:51:47.479Z,1.00
2018-09-19T02:52:54.510Z,1.20
2018-09-19T02:53:58.587Z,1.30
2018-09-19T02:55:02.614Z,1.35
2018-09-19T02:56:06.671Z,1.12
2018-09-19T02:57:10.768Z,1.10
2018-09-19T02:58:14.891Z,1.42
2018-09-19T02:59:19.081Z,1.42
2018-09-19T03:00:23.120Z,1.40
2018-09-19T03:01:27.249Z,1.80
2018-09-19T03:02:31.280Z,1.85
2018-09-19T03:03:35.365Z,1.45
2018-09-19T03:04:39.519Z,1.07
2018-09-19T03:05:43.656Z,1.32
2018-09-19T03:06:47.748Z,1.25
2018-09-19T03:07:51.855Z,1.82
2018-09-19T03:08:55.977Z,2.30
2018-09-19T03:10:00.077Z,1.47
2018-09-19T03:11:04.126Z,1.50
2018-09-19T03:12:08.188Z,1.45
2018-09-19T03:13:12.298Z,2.05
2018-09-19T03:14:16.463Z,2.65
2018-09-19T03:15:20.732Z,1.85
2018-09-19T03:16:24.772Z,1.40
2018-09-19T03:17:28.951Z,1.30
2018-09-19T03:18:33.163Z,1.87
2018-09-19T03:19:37.256Z,1.40
2018-09-19T03:20:41.397Z,1.40
2018-09-19T03:21:45.524Z,1.85
2018-09-19T03:22:49.628Z,1.35
2018-09-19T03:23:53.780Z,2.65
2018-09-19T03:24:57.858Z,1.30
2018-09-19T03:26:01.949Z,2.05
2018-09-19T03:27:06.041Z,1.47
2018-09-19T03:28:10.513Z,1.60
2018-09-19T03:29:14.640Z,1.55
2018-09-19T03:30:18.729Z,1.40
2018-09-19T03:31:22.823Z,2.77
2018-09-19T03:32:27.000Z,1.87
2018-09-19T03:33:31.089Z,2.25
2018-09-19T03:34:35.121Z,1.52
2018-09-19T03:35:39.261Z,2.02
2018-09-19T03:36:43.274Z,1.50
2018-09-19T03:37:47.369Z,1.55
2018-09-19T03:38:51.613Z,2.05
2018-09-19T03:39:55.739Z,3.62
2018-09-19T03:41:00.190Z,1.60
2018-09-19T03:42:04.333Z,1.40
2018-09-19T03:43:08.390Z,2.00
2018-09-19T03:44:12.465Z,1.57
2018-09-19T03:45:16.532Z,1.50
2018-09-19T03:46:20.712Z,1.52
2018-09-19T03:47:24.782Z,1.52
2018-09-19T03:48:28.889Z,1.37
2018-09-19T03:49:33.011Z,1.60
2018-09-19T03:50:37.118Z,2.35
2018-09-19T03:51:41.280Z,1.40
2018-09-19T03:52:45.367Z,2.27
2018-09-19T03:53:49.425Z,1.40
2018-09-19T03:54:53.586Z,1.50
2018-09-19T03:55:57.717Z,1.75
2018-09-19T03:57:01.746Z,2.08
2018-09-19T03:58:05.935Z,2.33
2018-09-19T03:59:10.005Z,1.65
2018-09-19T04:00:14.151Z,1.95
2018-09-19T04:01:18.392Z,1.70
2018-09-19T04:02:22.492Z,1.65
2018-09-19T04:03:26.594Z,1.55
2018-09-19T04:04:30.847Z,1.70
2018-09-19T04:05:34.949Z,1.55
2018-09-19T04:06:39.171Z,3.05
2018-09-19T04:07:43.386Z,1.60
2018-09-19T04:08:47.575Z,1.70
2018-09-19T04:09:51.729Z,1.62
2018-09-19T04:10:56.041Z,1.77
2018-09-19T04:12:00.161Z,1.67
2018-09-19T04:13:04.380Z,2.12
2018-09-19T04:14:09.328Z,1.92
2018-09-19T04:15:13.475Z,1.70
2018-09-19T04:16:17.632Z,1.67
2018-09-19T04:17:21.715Z,1.62
2018-09-19T04:18:25.809Z,1.70
2018-09-19T04:19:29.897Z,1.95
2018-09-19T04:20:34.074Z,1.60
2018-09-19T04:21:43.256Z,1.62
2018-09-19T04:22:47.322Z,2.20
2018-09-19T04:23:51.457Z,1.70
2018-09-19T04:24:55.548Z,2.15
2018-09-19T04:25:59.622Z,1.60
2018-09-19T04:27:03.811Z,1.75
2018-09-19T04:28:07.830Z,2.15
2018-09-19T04:29:11.942Z,1.65
2018-09-19T04:30:16.064Z,1.70
2018-09-19T04:31:20.182Z,1.62
2018-09-19T04:32:24.342Z,1.70
2018-09-19T04:33:28.431Z,1.52
2018-09-19T04:34:32.471Z,2.47
2018-09-19T04:35:36.580Z,1.60
2018-09-19T04:36:40.683Z,1.80
2018-09-19T04:37:44.853Z,2.95
2018-09-19T04:38:49.068Z,2.15
2018-09-19T04:39:53.161Z,2.00
2018-09-19T04:40:57.257Z,1.95
2018-09-19T04:42:01.525Z,1.85
2018-09-19T04:43:05.873Z,2.10
2018-09-19T04:44:10.498Z,2.05
2018-09-19T04:45:14.617Z,2.15
2018-09-19T04:46:18.693Z,1.60
2018-09-19T04:47:22.901Z,1.60
2018-09-19T04:48:27.030Z,1.92
2018-09-19T04:49:31.135Z,2.12
2018-09-19T04:50:35.261Z,2.30
2018-09-19T04:51:40.398Z,2.15
2018-09-19T04:52:44.356Z,1.98
2018-09-19T04:53:48.397Z,1.60
2018-09-19T04:54:52.584Z,2.90
2018-09-19T04:55:56.674Z,1.70
2018-09-19T04:57:00.798Z,2.80
2018-09-19T04:58:04.878Z,2.33
2018-09-19T04:59:08.952Z,2.62
2018-09-19T05:00:13.080Z,1.52
2018-09-19T05:01:17.175Z,1.98
2018-09-19T05:02:21.318Z,1.75
2018-09-19T05:03:25.515Z,1.98
2018-09-19T05:04:29.630Z,1.80
2018-09-19T05:05:33.785Z,1.92
2018-09-19T05:06:37.825Z,1.45
2018-09-19T05:07:41.945Z,2.02
2018-09-19T05:08:46.028Z,2.10
2018-09-19T05:09:50.136Z,1.90
2018-09-19T05:10:54.267Z,1.87
2018-09-19T05:11:58.350Z,1.80
2018-09-19T05:13:02.488Z,1.60
2018-09-19T05:14:06.933Z,1.87
2018-09-19T05:15:11.099Z,1.77
2018-09-19T05:16:15.196Z,1.90
2018-09-19T05:17:19.259Z,1.70
2018-09-19T05:18:23.348Z,2.65
2018-09-19T05:19:27.462Z,1.98
2018-09-19T05:20:31.629Z,1.60
2018-09-19T05:21:35.784Z,1.60
2018-09-19T05:22:39.825Z,2.37
2018-09-19T05:23:43.951Z,2.05
2018-09-19T05:24:48.073Z,1.80
2018-09-19T05:25:52.175Z,1.70
2018-09-19T05:26:56.358Z,1.77
2018-09-19T05:28:00.511Z,1.65
2018-09-19T05:29:04.693Z,1.52
2018-09-19T05:30:08.968Z,2.08
2018-09-19T05:31:19.705Z,2.45
2018-09-19T05:32:23.790Z,1.77
2018-09-19T05:33:27.912Z,1.70
2018-09-19T05:34:32.034Z,1.70
2018-09-19T05:35:36.113Z,2.12
2018-09-19T05:36:40.264Z,1.65
2018-09-19T05:37:44.416Z,1.62
2018-09-19T05:38:48.554Z,1.67
2018-09-19T05:39:52.636Z,1.50
2018-09-19T05:40:56.748Z,1.87
2018-09-19T05:42:00.874Z,1.95
2018-09-19T05:43:05.270Z,2.25
2018-09-19T05:44:09.466Z,2.95
2018-09-19T05:45:13.612Z,2.12
2018-09-19T05:46:17.755Z,2.00
2018-09-19T05:47:21.846Z,2.35
2018-09-19T05:48:25.930Z,2.72
2018-09-19T05:49:30.147Z,2.37
2018-09-19T05:50:34.224Z,3.22
2018-09-19T05:51:38.387Z,3.35
2018-09-19T05:52:42.449Z,6.92
2018-09-19T05:53:46.511Z,4.60
2018-09-19T05:54:50.673Z,2.67
2018-09-19T05:55:54.757Z,2.70
2018-09-19T05:56:58.876Z,2.70
2018-09-19T05:58:03.008Z,2.00
2018-09-19T05:59:07.114Z,2.33
2018-09-19T06:00:11.349Z,2.72
2018-09-19T06:01:15.507Z,1.92
2018-09-19T06:02:19.705Z,2.12
2018-09-19T06:03:23.747Z,3.08
2018-09-19T06:04:28.040Z,4.55
2018-09-19T06:05:32.147Z,2.92
2018-09-19T06:06:36.299Z,2.62
2018-09-19T06:07:40.452Z,2.33
2018-09-19T06:08:44.538Z,2.75
2018-09-19T06:09:49.460Z,3.12
2018-09-19T06:10:53.582Z,5.45
2018-09-19T06:11:57.753Z,3.10
2018-09-19T06:13:02.042Z,4.55
2018-09-19T06:14:06.116Z,4.58
2018-09-19T06:15:10.178Z,2.75
2018-09-19T06:16:14.256Z,2.55
2018-09-19T06:17:18.380Z,2.60
2018-09-19T06:18:22.493Z,3.05
2018-09-19T06:19:26.569Z,3.00
2018-09-19T06:20:30.902Z,2.62
2018-09-19T06:21:35.080Z,2.95
2018-09-19T06:22:39.407Z,3.65
2018-09-19T06:23:43.687Z,2.22
2018-09-19T06:24:47.857Z,2.05
2018-09-19T06:25:51.960Z,2.00
2018-09-19T06:26:56.076Z,2.47
2018-09-19T06:28:00.290Z,2.85
2018-09-19T06:29:04.436Z,3.67
2018-09-19T06:30:08.526Z,2.77
2018-09-19T06:31:12.578Z,2.90
2018-09-19T06:32:16.681Z,2.00
2018-09-19T06:33:20.852Z,2.15
2018-09-19T06:34:24.971Z,2.77
2018-09-19T06:35:29.082Z,4.12
2018-09-19T06:36:33.138Z,3.25
2018-09-19T06:37:37.278Z,2.12
2018-09-19T06:38:41.407Z,2.37
2018-09-19T06:39:45.671Z,3.45
2018-09-19T06:40:49.903Z,1.90
2018-09-19T06:41:53.898Z,4.20
2018-09-19T06:42:58.119Z,2.15
2018-09-19T06:44:02.230Z,2.30
2018-09-19T06:45:06.440Z,2.77
2018-09-19T06:46:10.841Z,2.42
2018-09-19T06:47:15.010Z,3.90
2018-09-19T06:48:19.230Z,5.53
2018-09-19T06:49:23.364Z,2.47
2018-09-19T06:50:27.454Z,3.30
2018-09-19T06:51:31.558Z,3.10
2018-09-19T06:52:35.775Z,2.67
2018-09-19T06:53:39.789Z,2.98
2018-09-19T06:54:43.896Z,2.40
2018-09-19T06:55:48.076Z,3.05
2018-09-19T06:56:52.380Z,2.47
2018-09-19T06:57:56.863Z,2.62
2018-09-19T06:59:01.126Z,2.50
2018-09-19T07:00:06.204Z,3.12
2018-09-19T07:01:10.384Z,2.50
2018-09-19T07:02:14.509Z,3.00
2018-09-19T07:03:18.639Z,5.75
2018-09-19T07:04:22.703Z,5.90
2018-09-19T07:05:26.787Z,4.70
2018-09-19T07:06:30.868Z,3.90
2018-09-19T07:07:35.020Z,3.12
2018-09-19T07:08:39.097Z,2.70
2018-09-19T07:09:43.343Z,2.80
2018-09-19T07:10:47.450Z,2.72
2018-09-19T07:11:51.510Z,3.33
2018-09-19T07:12:55.650Z,2.98
2018-09-19T07:13:59.824Z,2.62
2018-09-19T07:15:03.947Z,2.10
2018-09-19T07:16:08.008Z,2.50
2018-09-19T07:17:12.050Z,2.30
2018-09-19T07:18:16.209Z,2.20
2018-09-19T07:19:20.303Z,3.47
2018-09-19T07:20:24.414Z,2.47
2018-09-19T07:21:28.540Z,2.33
2018-09-19T07:22:32.716Z,3.02
2018-09-19T07:23:37.011Z,2.70
2018-09-19T07:24:41.096Z,2.65
2018-09-19T07:25:45.190Z,2.60
2018-09-19T07:26:49.234Z,2.60
2018-09-19T07:27:53.458Z,2.65
2018-09-19T07:28:57.651Z,2.80
2018-09-19T07:30:01.921Z,3.33
2018-09-19T07:31:06.029Z,2.60
2018-09-19T07:32:10.108Z,2.90
2018-09-19T07:33:14.178Z,4.55
2018-09-19T07:34:18.354Z,3.10
2018-09-19T07:35:22.608Z,2.90
2018-09-19T07:36:26.763Z,3.02
2018-09-19T07:37:30.815Z,2.98
2018-09-19T07:38:35.042Z,2.62
2018-09-19T07:39:39.208Z,3.90
2018-09-19T07:40:43.339Z,3.00
2018-09-19T07:41:47.463Z,3.72
2018-09-19T07:42:51.608Z,3.58
2018-09-19T07:43:55.957Z,3.35
2018-09-19T07:45:00.152Z,2.83
2018-09-19T07:46:04.353Z,3.37
2018-09-19T07:47:08.478Z,3.00
2018-09-19T07:48:12.796Z,3.62
2018-09-19T07:49:17.005Z,4.47
2018-09-19T07:50:21.183Z,2.70
2018-09-19T07:51:25.317Z,2.83
2018-09-19T07:52:29.425Z,3.08
2018-09-19T07:53:35.236Z,2.83
2018-09-19T07:54:39.440Z,2.62
2018-09-19T07:55:43.530Z,3.95
2018-09-19T07:56:47.651Z,3.20
2018-09-19T07:57:51.776Z,3.50
2018-09-19T07:58:56.058Z,3.42
2018-09-19T08:00:00.148Z,3.45
2018-09-19T08:01:04.344Z,3.33
2018-09-19T08:02:08.481Z,3.47
2018-09-19T08:03:13.086Z,2.77
2018-09-19T08:04:17.286Z,2.62
2018-09-19T08:05:21.510Z,4.75
2018-09-19T08:06:25.906Z,3.22
2018-09-19T08:07:30.076Z,3.17
2018-09-19T08:08:34.154Z,3.27
2018-09-19T08:09:38.292Z,3.65
2018-09-19T08:10:42.653Z,3.05
2018-09-19T08:11:47.024Z,3.10
2018-09-19T08:12:51.337Z,2.95
2018-09-19T08:13:55.561Z,3.67
2018-09-19T08:14:59.754Z,3.08
2018-09-19T08:16:03.843Z,4.47
2018-09-19T08:17:08.270Z,3.63
2018-09-19T08:18:12.738Z,3.37
2018-09-19T08:19:17.085Z,3.90
2018-09-19T08:20:21.461Z,3.70
2018-09-19T08:21:25.560Z,3.75
2018-09-19T08:22:30.008Z,3.67
2018-09-19T08:23:34.138Z,3.33
2018-09-19T08:24:38.410Z,3.27
2018-09-19T08:25:42.854Z,3.20
2018-09-19T08:26:47.013Z,3.40
2018-09-19T08:27:51.320Z,3.40
2018-09-19T08:28:55.573Z,3.50
2018-09-19T08:29:59.757Z,3.80
2018-09-19T08:31:03.921Z,3.30
2018-09-19T08:32:08.147Z,3.27
2018-09-19T08:33:12.510Z,3.33
2018-09-19T08:34:16.835Z,2.90
2018-09-19T08:35:20.979Z,4.33
2018-09-19T08:36:25.196Z,3.10
2018-09-19T08:37:29.504Z,3.97
2018-09-19T08:38:33.572Z,3.00
2018-09-19T08:39:37.849Z,3.20
2018-09-19T08:40:42.016Z,3.03
2018-09-19T08:41:46.204Z,3.07
2018-09-19T08:42:50.692Z,3.10
2018-09-19T08:43:55.355Z,4.17
2018-09-19T08:44:59.552Z,3.30
2018-09-19T08:46:03.812Z,5.70
2018-09-19T08:47:08.030Z,3.83
2018-09-19T08:48:12.172Z,3.43
2018-09-19T08:49:16.391Z,3.07
2018-09-19T08:50:20.711Z,3.37
2018-09-19T08:51:24.943Z,3.47
2018-09-19T08:52:29.036Z,3.30
2018-09-19T08:53:33.467Z,3.90
2018-09-19T08:54:37.605Z,3.10
2018-09-19T08:55:42.080Z,3.17
2018-09-19T08:56:46.283Z,3.20
2018-09-19T08:57:50.582Z,3.20
2018-09-19T08:58:55.052Z,2.83
2018-09-19T08:59:59.304Z,3.40
2018-09-19T09:01:03.560Z,3.23
2018-09-19T09:02:07.772Z,4.47
2018-09-19T09:03:11.884Z,3.37
2018-09-19T09:04:16.176Z,3.63
2018-09-19T09:05:20.355Z,2.90
2018-09-19T09:06:24.586Z,3.20
2018-09-19T09:07:28.725Z,3.20
2018-09-19T09:08:32.851Z,4.23
2018-09-19T09:09:36.991Z,3.17
2018-09-19T09:10:41.108Z,3.03
2018-09-19T09:11:45.398Z,3.20
2018-09-19T09:12:49.777Z,3.33
2018-09-19T09:13:53.952Z,3.10
2018-09-19T09:14:58.071Z,5.43
2018-09-19T09:16:02.170Z,2.70
2018-09-19T09:17:06.417Z,2.77
2018-09-19T09:18:10.476Z,3.17
2018-09-19T09:19:14.755Z,2.90
2018-09-19T09:20:18.841Z,3.17
2018-09-19T09:21:22.940Z,3.13
2018-09-19T09:22:27.071Z,3.00
2018-09-19T09:23:31.152Z,3.57
2018-09-19T09:24:35.190Z,3.33
2018-09-19T09:25:39.300Z,3.10
2018-09-19T09:26:43.444Z,3.33
2018-09-19T09:27:47.633Z,3.17
2018-09-19T09:28:51.804Z,2.70
2018-09-19T09:29:55.972Z,2.90
2018-09-19T09:31:00.136Z,3.13
2018-09-19T09:32:04.303Z,2.90
2018-09-19T09:33:08.425Z,2.97
2018-09-19T09:34:12.608Z,3.47
2018-09-19T09:35:16.678Z,4.70
2018-09-19T09:36:20.816Z,2.70
2018-09-19T09:37:25.039Z,3.73
2018-09-19T09:38:29.220Z,4.27
2018-09-19T09:39:33.398Z,3.30
2018-09-19T09:40:37.547Z,4.80
2018-09-19T09:41:41.729Z,3.47
2018-09-19T09:42:45.825Z,2.87
2018-09-19T09:43:50.019Z,3.07
2018-09-19T09:44:54.121Z,3.50
2018-09-19T09:45:58.303Z,3.40
2018-09-19T09:47:02.457Z,3.63
2018-09-19T09:48:06.645Z,3.60
2018-09-19T09:49:10.741Z,3.27
2018-09-19T09:50:14.916Z,4.17
2018-09-19T09:51:19.132Z,3.20
2018-09-19T09:52:23.335Z,3.30
2018-09-19T09:53:27.469Z,3.53
2018-09-19T09:54:31.511Z,3.50
2018-09-19T09:55:35.589Z,4.53
2018-09-19T09:56:39.834Z,3.77
2018-09-19T09:57:44.140Z,3.37
2018-09-19T09:58:48.278Z,3.90
2018-09-19T09:59:52.464Z,4.67
2018-09-19T10:00:57.633Z,4.53
2018-09-19T10:02:01.865Z,3.30
2018-09-19T10:03:06.619Z,3.00
2018-09-19T10:04:10.836Z,4.07
2018-09-19T10:05:15.000Z,4.40
2018-09-19T10:06:19.218Z,3.30
2018-09-19T10:07:23.359Z,3.43
2018-09-19T10:08:27.505Z,3.47
2018-09-19T10:09:31.639Z,3.43
2018-09-19T10:10:36.216Z,3.27
2018-09-19T10:11:40.344Z,3.37
2018-09-19T10:12:44.713Z,3.17
2018-09-19T10:13:49.566Z,3.57
2018-09-19T10:14:53.684Z,3.23
2018-09-19T10:15:57.831Z,3.07
2018-09-19T10:17:02.073Z,3.00
2018-09-19T10:18:06.243Z,3.40
2018-09-19T10:19:10.497Z,3.47
2018-09-19T10:20:14.610Z,3.60
2018-09-19T10:21:18.723Z,3.23
2018-09-19T10:22:22.842Z,2.70
2018-09-19T10:23:27.326Z,2.90
2018-09-19T10:24:31.482Z,3.40
2018-09-19T10:25:35.609Z,2.90
2018-09-19T10:26:39.663Z,3.77
2018-09-19T10:27:43.744Z,3.23
2018-09-19T10:28:48.012Z,3.27
2018-09-19T10:29:52.128Z,3.40
2018-09-19T10:30:56.272Z,3.00
2018-09-19T10:32:00.318Z,3.17
2018-09-19T10:33:04.627Z,3.30
2018-09-19T10:34:08.799Z,3.30
2018-09-19T10:35:12.963Z,3.20
2018-09-19T10:36:17.413Z,3.13
2018-09-19T10:37:21.490Z,3.27
2018-09-19T10:38:25.727Z,3.00
2018-09-19T10:39:29.813Z,2.90
2018-09-19T10:40:33.994Z,2.67
2018-09-19T10:41:38.438Z,3.20
2018-09-19T10:42:42.628Z,3.00
2018-09-19T10:43:47.091Z,3.80
2018-09-19T10:44:51.159Z,3.10
2018-09-19T10:45:55.291Z,4.20
2018-09-19T10:46:59.408Z,2.90
2018-09-19T10:48:03.778Z,2.77
2018-09-19T10:49:07.818Z,3.17
2018-09-19T10:50:12.022Z,3.57
2018-09-19T10:51:16.415Z,3.83
2018-09-19T10:52:20.635Z,3.17
2018-09-19T10:53:24.816Z,3.80
2018-09-19T10:54:28.964Z,3.23
2018-09-19T10:55:33.062Z,3.17
2018-09-19T10:56:37.268Z,3.00
2018-09-19T10:57:41.431Z,3.73
2018-09-19T10:58:45.580Z,3.27
2018-09-19T10:59:49.619Z,3.97
2018-09-19T11:00:53.704Z,3.80
2018-09-19T11:01:57.826Z,3.20
2018-09-19T11:03:01.973Z,3.60
2018-09-19T11:04:06.460Z,4.37
2018-09-19T11:05:10.624Z,3.43
2018-09-19T11:06:14.730Z,4.50
2018-09-19T11:07:18.756Z,3.30
2018-09-19T11:08:22.874Z,3.57
2018-09-19T11:09:27.046Z,3.10
2018-09-19T11:10:31.155Z,3.60
2018-09-19T11:11:35.316Z,3.37
2018-09-19T11:12:39.411Z,4.27
2018-09-19T11:13:43.616Z,3.63
2018-09-19T11:14:47.686Z,3.47
2018-09-19T11:15:51.766Z,3.20
2018-09-19T11:16:55.903Z,3.60
2018-09-19T11:17:59.986Z,3.83
2018-09-19T11:19:04.194Z,3.27
2018-09-19T11:20:08.360Z,3.67
2018-09-19T11:21:12.437Z,3.40
2018-09-19T11:22:16.541Z,3.43
2018-09-19T11:23:20.776Z,3.47
2018-09-19T11:24:24.952Z,6.07
2018-09-19T11:25:29.096Z,2.87
2018-09-19T11:26:33.401Z,3.13
2018-09-19T11:27:37.480Z,4.07
2018-09-19T11:28:41.526Z,3.53
2018-09-19T11:29:45.756Z,3.77
2018-09-19T11:30:49.996Z,3.40
2018-09-19T11:31:54.184Z,4.00
2018-09-19T11:32:58.598Z,3.07
2018-09-19T11:34:02.725Z,3.37
2018-09-19T11:35:06.973Z,3.27
2018-09-19T11:36:11.151Z,2.93
2018-09-19T11:37:15.374Z,3.23
2018-09-19T11:38:19.566Z,3.47
2018-09-19T11:39:24.484Z,3.23
2018-09-19T11:40:28.766Z,3.13
2018-09-19T11:41:32.987Z,3.47
2018-09-19T11:42:37.126Z,3.00
2018-09-19T11:43:41.357Z,3.07
2018-09-19T11:44:45.625Z,3.43
2018-09-19T11:45:49.984Z,3.40
2018-09-19T11:47:00.860Z,3.53
2018-09-19T11:48:05.349Z,4.53
2018-09-19T11:49:09.521Z,4.07
2018-09-19T11:50:13.808Z,4.50
2018-09-19T11:51:18.083Z,3.30
2018-09-19T11:52:22.184Z,3.50
2018-09-19T11:53:28.552Z,3.43
2018-09-19T11:54:32.812Z,3.23
2018-09-19T11:55:37.162Z,3.07
2018-09-19T11:56:41.261Z,3.20
2018-09-19T11:57:45.826Z,2.80
2018-09-19T11:58:49.919Z,3.17
2018-09-19T11:59:54.380Z,2.85
2018-09-19T12:00:59.156Z,3.22
2018-09-19T12:02:03.492Z,7.50
2018-09-19T12:03:08.553Z,14.95
2018-09-19T12:04:12.990Z,7.37
2018-09-19T12:05:17.408Z,4.65
2018-09-19T12:06:21.623Z,4.60
2018-09-19T12:07:25.959Z,3.87
2018-09-19T12:08:30.651Z,2.80
2018-09-19T12:09:34.739Z,3.10
2018-09-19T12:10:38.940Z,3.27
2018-09-19T12:11:43.123Z,2.90
2018-09-19T12:12:47.281Z,3.02
2018-09-19T12:13:51.407Z,2.77
2018-09-19T12:14:55.770Z,2.95
2018-09-19T12:15:59.932Z,2.92
2018-09-19T12:17:05.175Z,3.20
2018-09-19T12:18:09.358Z,3.50
2018-09-19T12:19:13.637Z,3.10
2018-09-19T12:20:17.869Z,3.37
2018-09-19T12:21:21.993Z,3.30
2018-09-19T12:22:26.201Z,3.10
2018-09-19T12:23:30.627Z,3.00
2018-09-19T12:24:34.911Z,3.20
2018-09-19T12:25:39.228Z,3.02
2018-09-19T12:26:43.500Z,2.95
2018-09-19T12:27:47.810Z,2.90
2018-09-19T12:28:51.977Z,4.87
2018-09-19T12:29:56.535Z,3.27
2018-09-19T12:31:00.929Z,3.22
2018-09-19T12:32:05.199Z,3.20
2018-09-19T12:33:10.304Z,2.85
2018-09-19T12:34:14.592Z,3.33
2018-09-19T12:35:18.698Z,2.80
2018-09-19T12:36:23.516Z,3.00
2018-09-19T12:37:27.686Z,3.10
2018-09-19T12:38:31.783Z,3.08
2018-09-19T12:39:35.971Z,3.17
2018-09-19T12:40:40.057Z,3.22
2018-09-19T12:41:44.178Z,3.10
2018-09-19T12:42:48.288Z,3.02
2018-09-19T12:43:52.450Z,3.08
2018-09-19T12:44:56.604Z,2.85
2018-09-19T12:46:00.733Z,3.08
2018-09-19T12:47:05.165Z,4.85
2018-09-19T12:48:09.187Z,3.22
2018-09-19T12:49:13.307Z,2.85
2018-09-19T12:50:17.535Z,3.10
2018-09-19T12:51:21.639Z,3.00
2018-09-19T12:52:25.882Z,4.05
2018-09-19T12:53:30.023Z,3.30
2018-09-19T12:54:34.168Z,3.35
2018-09-19T12:55:38.286Z,2.75
2018-09-19T12:56:42.420Z,3.15
2018-09-19T12:57:46.703Z,2.72
2018-09-19T12:58:50.790Z,3.10
2018-09-19T12:59:55.014Z,3.00
2018-09-19T13:00:59.083Z,2.98
2018-09-19T13:02:03.290Z,2.72
2018-09-19T13:03:07.378Z,3.00
2018-09-19T13:04:11.457Z,3.00
2018-09-19T13:05:15.492Z,3.58
2018-09-19T13:06:19.620Z,3.17
2018-09-19T13:07:23.825Z,3.10
2018-09-19T13:08:28.026Z,2.83
2018-09-19T13:09:31.858Z,2.80
2018-09-19T13:10:35.586Z,3.75
2018-09-19T13:11:39.409Z,2.67
2018-09-19T13:12:43.429Z,4.25
2018-09-19T13:13:47.596Z,3.25
2018-09-19T13:14:51.379Z,3.25
2018-09-19T13:15:55.090Z,3.42
2018-09-19T13:16:59.152Z,3.08
2018-09-19T13:18:03.267Z,3.72
2018-09-19T13:19:07.308Z,2.98
2018-09-19T13:20:11.440Z,2.98
2018-09-19T13:21:15.638Z,3.17
2018-09-19T13:22:19.767Z,3.17
2018-09-19T13:23:23.882Z,2.65
2018-09-19T13:24:27.960Z,2.70
2018-09-19T13:25:32.157Z,2.80
2018-09-19T13:26:36.409Z,3.05
2018-09-19T13:27:40.643Z,2.70
2018-09-19T13:28:44.850Z,3.10
2018-09-19T13:29:48.924Z,2.70
2018-09-19T13:30:53.118Z,2.85
2018-09-19T13:31:57.289Z,3.40
2018-09-19T13:33:01.528Z,2.98
2018-09-19T13:34:05.698Z,3.08
2018-09-19T13:35:09.877Z,3.02
2018-09-19T13:36:13.997Z,2.92
2018-09-19T13:37:18.196Z,2.87
2018-09-19T13:38:22.424Z,3.00
2018-09-19T13:39:26.651Z,2.65
2018-09-19T13:40:30.969Z,3.05
2018-09-19T13:41:35.168Z,2.95
2018-09-19T13:42:39.492Z,2.80
2018-09-19T13:43:43.704Z,2.60
2018-09-19T13:44:47.910Z,2.95
2018-09-19T13:45:52.230Z,2.80
2018-09-19T13:46:56.343Z,2.80
2018-09-19T13:48:00.603Z,2.90
2018-09-19T13:49:14.317Z,3.10
2018-09-19T13:50:24.401Z,2.62
2018-09-19T13:51:28.584Z,2.60
2018-09-19T13:52:32.671Z,2.52
2018-09-19T13:53:36.856Z,2.60
2018-09-19T13:54:41.004Z,2.72
2018-09-19T13:55:45.188Z,2.80
2018-09-19T13:56:49.324Z,2.62
2018-09-19T13:57:53.539Z,3.05
2018-09-19T13:58:57.751Z,2.90
2018-09-19T14:00:01.895Z,2.90
2018-09-19T14:01:06.099Z,3.95
2018-09-19T14:02:10.230Z,2.72
2018-09-19T14:03:14.542Z,3.40
2018-09-19T14:04:19.399Z,2.80
2018-09-19T14:05:23.556Z,2.80
2018-09-19T14:06:27.672Z,2.60
2018-09-19T14:07:31.886Z,3.03
2018-09-19T14:08:36.088Z,2.70
2018-09-19T14:09:40.204Z,2.57
2018-09-19T14:10:44.360Z,2.40
2018-09-19T14:11:48.486Z,2.90
2018-09-19T14:12:52.529Z,2.60
2018-09-19T14:13:56.591Z,2.80
2018-09-19T14:15:00.717Z,2.80